sensor_id;sensor_type;location;lat;lon;timestamp;P1;durP1;ratioP1;P2;durP2;ratioP2
85381;SDS011;75790;40.308;44.272;2024-02-23T00:01:05;15.15;;;7.88;;
85381;SDS011;75790;40.308;44.272;2024-02-23T00:03:31;18.08;;;8.60;;
85381;SDS011;75790;40.308;44.272;2024-02-23T00:05:58;16.83;;;8.45;;
85381;SDS011;75790;40.308;44.272;2024-02-23T00:08:24;18.20;;;8.57;;
85381;SDS011;75790;40.308;44.272;2024-02-23T00:10:50;18.80;;;9.13;;
85381;SDS011;75790;40.308;44.272;2024-02-23T00:13:16;16.73;;;8.48;;
85381;SDS011;75790;40.308;44.272;2024-02-23T00:15:41;17.50;;;7.60;;
85381;SDS011;75790;40.308;44.272;2024-02-23T00:18:09;17.52;;;9.15;;
85381;SDS011;75790;40.308;44.272;2024-02-23T00:20:34;14.48;;;7.63;;
85381;SDS011;75790;40.308;44.272;2024-02-23T00:23:02;17.70;;;8.70;;
85381;SDS011;75790;40.308;44.272;2024-02-23T00:25:28;15.90;;;8.02;;
85381;SDS011;75790;40.308;44.272;2024-02-23T00:27:54;15.23;;;7.80;;
85381;SDS011;75790;40.308;44.272;2024-02-23T00:30:19;15.52;;;7.75;;
85381;SDS011;75790;40.308;44.272;2024-02-23T00:32:45;17.05;;;8.10;;
85381;SDS011;75790;40.308;44.272;2024-02-23T00:35:11;14.40;;;7.63;;
85381;SDS011;75790;40.308;44.272;2024-02-23T00:37:37;17.63;;;8.23;;
85381;SDS011;75790;40.308;44.272;2024-02-23T00:40:03;15.13;;;8.05;;
85381;SDS011;75790;40.308;44.272;2024-02-23T00:42:30;12.35;;;6.95;;
85381;SDS011;75790;40.308;44.272;2024-02-23T00:44:56;14.55;;;7.05;;
85381;SDS011;75790;40.308;44.272;2024-02-23T00:47:22;18.63;;;8.48;;
85381;SDS011;75790;40.308;44.272;2024-02-23T00:49:48;15.95;;;7.82;;
85381;SDS011;75790;40.308;44.272;2024-02-23T00:52:14;17.50;;;7.85;;
85381;SDS011;75790;40.308;44.272;2024-02-23T00:54:40;14.27;;;7.60;;
85381;SDS011;75790;40.308;44.272;2024-02-23T00:57:05;13.18;;;7.00;;
85381;SDS011;75790;40.308;44.272;2024-02-23T00:59:31;11.88;;;6.50;;
85381;SDS011;75790;40.308;44.272;2024-02-23T01:01:57;12.90;;;6.80;;
85381;SDS011;75790;40.308;44.272;2024-02-23T01:04:23;17.38;;;7.70;;
85381;SDS011;75790;40.308;44.272;2024-02-23T01:06:49;14.50;;;7.30;;
85381;SDS011;75790;40.308;44.272;2024-02-23T01:09:15;13.23;;;6.13;;
85381;SDS011;75790;40.308;44.272;2024-02-23T01:11:46;13.77;;;6.35;;
85381;SDS011;75790;40.308;44.272;2024-02-23T01:14:12;15.23;;;7.90;;
85381;SDS011;75790;40.308;44.272;2024-02-23T01:16:38;9.27;;;5.28;;
85381;SDS011;75790;40.308;44.272;2024-02-23T01:19:03;9.13;;;5.22;;
85381;SDS011;75790;40.308;44.272;2024-02-23T01:21:29;11.10;;;5.75;;
85381;SDS011;75790;40.308;44.272;2024-02-23T01:23:55;11.65;;;6.40;;
85381;SDS011;75790;40.308;44.272;2024-02-23T01:26:22;9.95;;;5.65;;
85381;SDS011;75790;40.308;44.272;2024-02-23T01:28:48;12.98;;;6.13;;
85381;SDS011;75790;40.308;44.272;2024-02-23T01:31:14;12.73;;;7.18;;
85381;SDS011;75790;40.308;44.272;2024-02-23T01:33:40;12.90;;;6.68;;
85381;SDS011;75790;40.308;44.272;2024-02-23T01:36:07;12.23;;;6.50;;
85381;SDS011;75790;40.308;44.272;2024-02-23T01:38:32;12.95;;;6.90;;
85381;SDS011;75790;40.308;44.272;2024-02-23T01:40:59;9.57;;;5.38;;
85381;SDS011;75790;40.308;44.272;2024-02-23T01:43:25;12.68;;;5.82;;
85381;SDS011;75790;40.308;44.272;2024-02-23T01:45:51;14.45;;;7.75;;
85381;SDS011;75790;40.308;44.272;2024-02-23T01:48:17;13.07;;;7.35;;
85381;SDS011;75790;40.308;44.272;2024-02-23T01:50:44;13.70;;;7.22;;
85381;SDS011;75790;40.308;44.272;2024-02-23T01:53:10;9.93;;;5.85;;
85381;SDS011;75790;40.308;44.272;2024-02-23T01:55:36;14.27;;;7.15;;
85381;SDS011;75790;40.308;44.272;2024-02-23T01:58:03;12.38;;;6.55;;
85381;SDS011;75790;40.308;44.272;2024-02-23T02:00:30;11.98;;;6.35;;
85381;SDS011;75790;40.308;44.272;2024-02-23T02:02:56;15.27;;;7.18;;
85381;SDS011;75790;40.308;44.272;2024-02-23T02:05:22;12.60;;;6.38;;
85381;SDS011;75790;40.308;44.272;2024-02-23T02:07:49;14.13;;;7.28;;
85381;SDS011;75790;40.308;44.272;2024-02-23T02:10:18;14.02;;;7.35;;
85381;SDS011;75790;40.308;44.272;2024-02-23T02:12:45;11.20;;;6.47;;
85381;SDS011;75790;40.308;44.272;2024-02-23T02:15:11;14.43;;;7.07;;
85381;SDS011;75790;40.308;44.272;2024-02-23T02:17:37;11.30;;;6.00;;
85381;SDS011;75790;40.308;44.272;2024-02-23T02:20:03;11.80;;;6.78;;
85381;SDS011;75790;40.308;44.272;2024-02-23T02:22:31;11.98;;;6.40;;
85381;SDS011;75790;40.308;44.272;2024-02-23T02:24:58;10.88;;;5.78;;
85381;SDS011;75790;40.308;44.272;2024-02-23T02:27:24;12.90;;;7.20;;
85381;SDS011;75790;40.308;44.272;2024-02-23T02:29:50;13.43;;;6.50;;
85381;SDS011;75790;40.308;44.272;2024-02-23T02:32:16;12.23;;;6.47;;
85381;SDS011;75790;40.308;44.272;2024-02-23T02:34:43;14.20;;;6.82;;
85381;SDS011;75790;40.308;44.272;2024-02-23T02:37:09;11.43;;;6.03;;
85381;SDS011;75790;40.308;44.272;2024-02-23T02:39:35;13.07;;;6.35;;
85381;SDS011;75790;40.308;44.272;2024-02-23T02:42:01;15.73;;;7.72;;
85381;SDS011;75790;40.308;44.272;2024-02-23T02:44:27;13.50;;;6.70;;
85381;SDS011;75790;40.308;44.272;2024-02-23T02:46:56;13.43;;;5.75;;
85381;SDS011;75790;40.308;44.272;2024-02-23T02:49:22;12.20;;;6.53;;
85381;SDS011;75790;40.308;44.272;2024-02-23T02:51:49;15.45;;;7.10;;
85381;SDS011;75790;40.308;44.272;2024-02-23T02:54:15;13.73;;;7.03;;
85381;SDS011;75790;40.308;44.272;2024-02-23T02:56:44;14.13;;;7.40;;
85381;SDS011;75790;40.308;44.272;2024-02-23T02:59:12;14.10;;;7.28;;
85381;SDS011;75790;40.308;44.272;2024-02-23T03:01:39;15.25;;;7.60;;
85381;SDS011;75790;40.308;44.272;2024-02-23T03:04:05;13.48;;;6.90;;
85381;SDS011;75790;40.308;44.272;2024-02-23T03:06:31;11.82;;;6.15;;
85381;SDS011;75790;40.308;44.272;2024-02-23T03:08:56;12.50;;;6.07;;
85381;SDS011;75790;40.308;44.272;2024-02-23T03:11:22;12.20;;;6.10;;
85381;SDS011;75790;40.308;44.272;2024-02-23T03:13:48;9.50;;;5.15;;
85381;SDS011;75790;40.308;44.272;2024-02-23T03:16:14;11.32;;;5.43;;
85381;SDS011;75790;40.308;44.272;2024-02-23T03:18:41;11.40;;;5.90;;
85381;SDS011;75790;40.308;44.272;2024-02-23T03:21:07;11.95;;;6.15;;
85381;SDS011;75790;40.308;44.272;2024-02-23T03:23:35;11.77;;;6.32;;
85381;SDS011;75790;40.308;44.272;2024-02-23T03:26:01;11.27;;;5.78;;
85381;SDS011;75790;40.308;44.272;2024-02-23T03:28:28;8.38;;;4.65;;
85381;SDS011;75790;40.308;44.272;2024-02-23T03:30:54;9.82;;;4.95;;
85381;SDS011;75790;40.308;44.272;2024-02-23T03:33:20;9.90;;;5.63;;
85381;SDS011;75790;40.308;44.272;2024-02-23T03:35:45;8.77;;;5.00;;
85381;SDS011;75790;40.308;44.272;2024-02-23T03:38:11;9.70;;;5.15;;
85381;SDS011;75790;40.308;44.272;2024-02-23T03:40:37;10.75;;;5.13;;
85381;SDS011;75790;40.308;44.272;2024-02-23T03:43:03;8.35;;;4.25;;
85381;SDS011;75790;40.308;44.272;2024-02-23T03:45:31;9.50;;;4.65;;
85381;SDS011;75790;40.308;44.272;2024-02-23T03:47:57;8.93;;;4.63;;
85381;SDS011;75790;40.308;44.272;2024-02-23T03:50:24;8.98;;;4.60;;
85381;SDS011;75790;40.308;44.272;2024-02-23T03:52:50;8.40;;;4.07;;
85381;SDS011;75790;40.308;44.272;2024-02-23T03:55:16;9.13;;;5.00;;
85381;SDS011;75790;40.308;44.272;2024-02-23T03:57:42;9.18;;;5.20;;
85381;SDS011;75790;40.308;44.272;2024-02-23T04:00:08;9.15;;;5.05;;
85381;SDS011;75790;40.308;44.272;2024-02-23T04:02:35;10.70;;;5.28;;
85381;SDS011;75790;40.308;44.272;2024-02-23T04:05:00;8.60;;;4.25;;
85381;SDS011;75790;40.308;44.272;2024-02-23T04:07:27;11.48;;;5.53;;
85381;SDS011;75790;40.308;44.272;2024-02-23T04:09:52;11.00;;;5.32;;
85381;SDS011;75790;40.308;44.272;2024-02-23T04:12:22;8.88;;;4.72;;
85381;SDS011;75790;40.308;44.272;2024-02-23T04:14:48;12.77;;;6.45;;
85381;SDS011;75790;40.308;44.272;2024-02-23T04:17:14;14.02;;;6.78;;
85381;SDS011;75790;40.308;44.272;2024-02-23T04:19:42;15.68;;;7.90;;
85381;SDS011;75790;40.308;44.272;2024-02-23T04:22:08;21.52;;;9.40;;
85381;SDS011;75790;40.308;44.272;2024-02-23T04:24:40;15.10;;;8.18;;
85381;SDS011;75790;40.308;44.272;2024-02-23T04:27:07;19.70;;;7.78;;
85381;SDS011;75790;40.308;44.272;2024-02-23T04:29:33;11.35;;;6.28;;
85381;SDS011;75790;40.308;44.272;2024-02-23T04:31:59;10.70;;;5.40;;
85381;SDS011;75790;40.308;44.272;2024-02-23T04:34:26;10.27;;;5.53;;
85381;SDS011;75790;40.308;44.272;2024-02-23T04:36:53;11.88;;;5.50;;
85381;SDS011;75790;40.308;44.272;2024-02-23T04:39:19;11.88;;;5.57;;
85381;SDS011;75790;40.308;44.272;2024-02-23T04:41:44;10.60;;;5.68;;
85381;SDS011;75790;40.308;44.272;2024-02-23T04:44:10;11.38;;;5.47;;
85381;SDS011;75790;40.308;44.272;2024-02-23T04:46:37;11.40;;;5.80;;
85381;SDS011;75790;40.308;44.272;2024-02-23T04:49:03;9.88;;;5.28;;
85381;SDS011;75790;40.308;44.272;2024-02-23T04:51:29;11.65;;;5.68;;
85381;SDS011;75790;40.308;44.272;2024-02-23T04:53:54;10.57;;;5.45;;
85381;SDS011;75790;40.308;44.272;2024-02-23T04:56:20;10.00;;;5.25;;
85381;SDS011;75790;40.308;44.272;2024-02-23T04:58:46;9.95;;;5.05;;
85381;SDS011;75790;40.308;44.272;2024-02-23T05:01:12;10.13;;;5.25;;
85381;SDS011;75790;40.308;44.272;2024-02-23T05:03:38;8.85;;;4.80;;
85381;SDS011;75790;40.308;44.272;2024-02-23T05:06:04;9.07;;;4.80;;
85381;SDS011;75790;40.308;44.272;2024-02-23T05:08:31;7.55;;;4.82;;
85381;SDS011;75790;40.308;44.272;2024-02-23T05:10:57;7.97;;;4.63;;
85381;SDS011;75790;40.308;44.272;2024-02-23T05:13:23;9.13;;;4.82;;
85381;SDS011;75790;40.308;44.272;2024-02-23T05:15:49;9.27;;;4.63;;
85381;SDS011;75790;40.308;44.272;2024-02-23T05:18:16;9.63;;;4.80;;
85381;SDS011;75790;40.308;44.272;2024-02-23T05:20:42;10.07;;;5.40;;
85381;SDS011;75790;40.308;44.272;2024-02-23T05:23:08;8.73;;;4.72;;
85381;SDS011;75790;40.308;44.272;2024-02-23T05:25:34;12.65;;;5.07;;
85381;SDS011;75790;40.308;44.272;2024-02-23T05:28:00;10.57;;;5.70;;
85381;SDS011;75790;40.308;44.272;2024-02-23T05:30:26;10.18;;;5.40;;
85381;SDS011;75790;40.308;44.272;2024-02-23T05:32:55;8.82;;;4.60;;
85381;SDS011;75790;40.308;44.272;2024-02-23T05:35:22;10.27;;;4.95;;
85381;SDS011;75790;40.308;44.272;2024-02-23T05:37:48;11.68;;;6.30;;
85381;SDS011;75790;40.308;44.272;2024-02-23T05:40:15;8.80;;;5.18;;
85381;SDS011;75790;40.308;44.272;2024-02-23T05:42:41;9.70;;;5.57;;
85381;SDS011;75790;40.308;44.272;2024-02-23T05:45:07;10.25;;;5.50;;
85381;SDS011;75790;40.308;44.272;2024-02-23T05:47:37;11.00;;;5.45;;
85381;SDS011;75790;40.308;44.272;2024-02-23T05:50:04;9.60;;;4.68;;
85381;SDS011;75790;40.308;44.272;2024-02-23T05:52:34;10.13;;;5.15;;
85381;SDS011;75790;40.308;44.272;2024-02-23T05:55:00;9.45;;;4.90;;
85381;SDS011;75790;40.308;44.272;2024-02-23T05:57:27;9.80;;;4.72;;
85381;SDS011;75790;40.308;44.272;2024-02-23T05:59:53;9.10;;;4.72;;
85381;SDS011;75790;40.308;44.272;2024-02-23T06:02:20;11.40;;;5.90;;
85381;SDS011;75790;40.308;44.272;2024-02-23T06:04:46;9.13;;;4.90;;
85381;SDS011;75790;40.308;44.272;2024-02-23T06:07:12;9.57;;;5.03;;
85381;SDS011;75790;40.308;44.272;2024-02-23T06:09:41;10.30;;;5.00;;
85381;SDS011;75790;40.308;44.272;2024-02-23T06:12:07;11.98;;;6.15;;
85381;SDS011;75790;40.308;44.272;2024-02-23T06:14:33;11.15;;;5.10;;
85381;SDS011;75790;40.308;44.272;2024-02-23T06:17:00;10.80;;;4.95;;
85381;SDS011;75790;40.308;44.272;2024-02-23T06:19:26;11.02;;;5.30;;
85381;SDS011;75790;40.308;44.272;2024-02-23T06:21:52;8.45;;;4.47;;
85381;SDS011;75790;40.308;44.272;2024-02-23T06:24:18;11.15;;;5.45;;
85381;SDS011;75790;40.308;44.272;2024-02-23T06:26:45;10.35;;;5.70;;
85381;SDS011;75790;40.308;44.272;2024-02-23T06:29:11;10.73;;;5.03;;
85381;SDS011;75790;40.308;44.272;2024-02-23T06:31:40;10.95;;;5.32;;
85381;SDS011;75790;40.308;44.272;2024-02-23T06:34:06;10.50;;;5.13;;
85381;SDS011;75790;40.308;44.272;2024-02-23T06:36:33;12.80;;;6.32;;
85381;SDS011;75790;40.308;44.272;2024-02-23T06:38:59;11.80;;;5.55;;
85381;SDS011;75790;40.308;44.272;2024-02-23T07:39:51;11.05;;;5.97;;
85381;SDS011;75790;40.308;44.272;2024-02-23T07:42:18;11.88;;;6.28;;
85381;SDS011;75790;40.308;44.272;2024-02-23T07:44:44;14.45;;;6.72;;
85381;SDS011;75790;40.308;44.272;2024-02-23T07:47:13;12.38;;;6.25;;
85381;SDS011;75790;40.308;44.272;2024-02-23T07:49:39;11.63;;;6.40;;
85381;SDS011;75790;40.308;44.272;2024-02-23T07:52:08;15.13;;;6.95;;
85381;SDS011;75790;40.308;44.272;2024-02-23T07:54:34;12.57;;;6.95;;
85381;SDS011;75790;40.308;44.272;2024-02-23T07:57:00;15.05;;;7.25;;
85381;SDS011;75790;40.308;44.272;2024-02-23T07:59:26;14.18;;;7.22;;
85381;SDS011;75790;40.308;44.272;2024-02-23T08:01:53;15.95;;;8.02;;
85381;SDS011;75790;40.308;44.272;2024-02-23T08:04:20;12.95;;;7.03;;
85381;SDS011;75790;40.308;44.272;2024-02-23T08:06:46;16.17;;;7.85;;
85381;SDS011;75790;40.308;44.272;2024-02-23T08:09:13;16.02;;;7.43;;
85381;SDS011;75790;40.308;44.272;2024-02-23T08:11:39;14.93;;;6.88;;
85381;SDS011;75790;40.308;44.272;2024-02-23T08:14:05;13.20;;;6.97;;
85381;SDS011;75790;40.308;44.272;2024-02-23T08:16:31;13.93;;;7.50;;
85381;SDS011;75790;40.308;44.272;2024-02-23T08:18:58;15.98;;;7.65;;
85381;SDS011;75790;40.308;44.272;2024-02-23T08:21:24;15.43;;;8.15;;
85381;SDS011;75790;40.308;44.272;2024-02-23T08:23:51;14.35;;;7.90;;
85381;SDS011;75790;40.308;44.272;2024-02-23T08:26:17;16.58;;;8.38;;
85381;SDS011;75790;40.308;44.272;2024-02-23T08:28:43;17.88;;;8.48;;
85381;SDS011;75790;40.308;44.272;2024-02-23T08:31:08;16.25;;;8.43;;
85381;SDS011;75790;40.308;44.272;2024-02-23T08:33:34;14.85;;;8.02;;
85381;SDS011;75790;40.308;44.272;2024-02-23T08:36:00;16.58;;;9.32;;
85381;SDS011;75790;40.308;44.272;2024-02-23T08:38:26;17.75;;;9.02;;
85381;SDS011;75790;40.308;44.272;2024-02-23T08:40:52;13.02;;;7.22;;
85381;SDS011;75790;40.308;44.272;2024-02-23T08:43:18;16.60;;;9.23;;
85381;SDS011;75790;40.308;44.272;2024-02-23T08:45:45;14.30;;;7.63;;
85381;SDS011;75790;40.308;44.272;2024-02-23T08:48:11;15.43;;;9.18;;
85381;SDS011;75790;40.308;44.272;2024-02-23T08:50:40;14.93;;;8.20;;
85381;SDS011;75790;40.308;44.272;2024-02-23T08:53:06;16.67;;;8.68;;
85381;SDS011;75790;40.308;44.272;2024-02-23T08:55:32;16.10;;;8.68;;
85381;SDS011;75790;40.308;44.272;2024-02-23T08:57:58;15.05;;;8.27;;
85381;SDS011;75790;40.308;44.272;2024-02-23T09:00:24;17.77;;;9.70;;
85381;SDS011;75790;40.308;44.272;2024-02-23T09:02:50;16.17;;;8.70;;
85381;SDS011;75790;40.308;44.272;2024-02-23T09:05:16;15.65;;;8.77;;
85381;SDS011;75790;40.308;44.272;2024-02-23T09:07:42;16.95;;;9.18;;
85381;SDS011;75790;40.308;44.272;2024-02-23T09:10:08;17.30;;;9.25;;
85381;SDS011;75790;40.308;44.272;2024-02-23T09:12:34;16.23;;;8.82;;
85381;SDS011;75790;40.308;44.272;2024-02-23T09:15:01;16.77;;;8.80;;
85381;SDS011;75790;40.308;44.272;2024-02-23T09:17:26;15.43;;;8.75;;
85381;SDS011;75790;40.308;44.272;2024-02-23T09:19:52;18.45;;;9.15;;
85381;SDS011;75790;40.308;44.272;2024-02-23T09:22:18;14.30;;;8.73;;
85381;SDS011;75790;40.308;44.272;2024-02-23T09:24:44;16.88;;;8.70;;
85381;SDS011;75790;40.308;44.272;2024-02-23T09:27:10;15.20;;;8.25;;
85381;SDS011;75790;40.308;44.272;2024-02-23T09:29:36;16.30;;;8.77;;
85381;SDS011;75790;40.308;44.272;2024-02-23T09:32:02;17.35;;;9.35;;
85381;SDS011;75790;40.308;44.272;2024-02-23T09:34:28;15.93;;;8.90;;
85381;SDS011;75790;40.308;44.272;2024-02-23T09:36:54;17.10;;;9.40;;
85381;SDS011;75790;40.308;44.272;2024-02-23T09:39:20;16.23;;;8.95;;
85381;SDS011;75790;40.308;44.272;2024-02-23T09:41:49;16.05;;;9.30;;
85381;SDS011;75790;40.308;44.272;2024-02-23T09:44:16;16.92;;;9.60;;
85381;SDS011;75790;40.308;44.272;2024-02-23T09:46:45;20.55;;;10.45;;
85381;SDS011;75790;40.308;44.272;2024-02-23T09:49:11;19.90;;;10.00;;
85381;SDS011;75790;40.308;44.272;2024-02-23T09:51:38;16.65;;;9.75;;
85381;SDS011;75790;40.308;44.272;2024-02-23T09:54:04;20.30;;;10.93;;
85381;SDS011;75790;40.308;44.272;2024-02-23T09:56:30;18.95;;;10.38;;
85381;SDS011;75790;40.308;44.272;2024-02-23T09:58:58;17.95;;;9.93;;
85381;SDS011;75790;40.308;44.272;2024-02-23T10:01:32;15.38;;;8.63;;
85381;SDS011;75790;40.308;44.272;2024-02-23T10:03:58;16.65;;;9.40;;
85381;SDS011;75790;40.308;44.272;2024-02-23T10:06:25;16.23;;;8.75;;
85381;SDS011;75790;40.308;44.272;2024-02-23T10:08:51;14.70;;;8.43;;
85381;SDS011;75790;40.308;44.272;2024-02-23T10:11:22;15.48;;;8.95;;
85381;SDS011;75790;40.308;44.272;2024-02-23T10:13:49;13.98;;;7.68;;
85381;SDS011;75790;40.308;44.272;2024-02-23T10:16:15;12.45;;;7.93;;
85381;SDS011;75790;40.308;44.272;2024-02-23T10:18:42;14.77;;;7.90;;
85381;SDS011;75790;40.308;44.272;2024-02-23T10:21:08;13.10;;;6.95;;
85381;SDS011;75790;40.308;44.272;2024-02-23T10:23:34;10.93;;;6.75;;
85381;SDS011;75790;40.308;44.272;2024-02-23T10:25:59;11.35;;;6.65;;
85381;SDS011;75790;40.308;44.272;2024-02-23T10:28:25;10.93;;;6.40;;
85381;SDS011;75790;40.308;44.272;2024-02-23T10:30:53;9.88;;;5.70;;
85381;SDS011;75790;40.308;44.272;2024-02-23T10:33:20;10.35;;;5.10;;
85381;SDS011;75790;40.308;44.272;2024-02-23T10:35:48;9.88;;;5.78;;
85381;SDS011;75790;40.308;44.272;2024-02-23T10:38:18;10.82;;;5.60;;
85381;SDS011;75790;40.308;44.272;2024-02-23T10:40:43;8.50;;;5.28;;
85381;SDS011;75790;40.308;44.272;2024-02-23T10:43:11;10.20;;;5.55;;
85381;SDS011;75790;40.308;44.272;2024-02-23T10:45:38;9.48;;;5.30;;
85381;SDS011;75790;40.308;44.272;2024-02-23T10:48:06;11.50;;;5.38;;
85381;SDS011;75790;40.308;44.272;2024-02-23T10:50:33;8.60;;;5.07;;
85381;SDS011;75790;40.308;44.272;2024-02-23T10:52:59;11.10;;;5.07;;
85381;SDS011;75790;40.308;44.272;2024-02-23T10:55:26;9.02;;;4.65;;
85381;SDS011;75790;40.308;44.272;2024-02-23T10:57:53;9.27;;;5.03;;
85381;SDS011;75790;40.308;44.272;2024-02-23T11:00:21;7.53;;;4.35;;
85381;SDS011;75790;40.308;44.272;2024-02-23T11:02:50;9.88;;;4.82;;
85381;SDS011;75790;40.308;44.272;2024-02-23T11:05:17;9.80;;;5.72;;
85381;SDS011;75790;40.308;44.272;2024-02-23T11:07:46;10.38;;;5.63;;
85381;SDS011;75790;40.308;44.272;2024-02-23T11:10:14;11.55;;;5.80;;
85381;SDS011;75790;40.308;44.272;2024-02-23T11:12:41;9.80;;;5.22;;
85381;SDS011;75790;40.308;44.272;2024-02-23T11:15:07;8.10;;;4.47;;
85381;SDS011;75790;40.308;44.272;2024-02-23T11:17:35;8.88;;;4.90;;
85381;SDS011;75790;40.308;44.272;2024-02-23T11:20:03;7.20;;;4.20;;
85381;SDS011;75790;40.308;44.272;2024-02-23T11:22:30;9.18;;;4.72;;
85381;SDS011;75790;40.308;44.272;2024-02-23T11:25:16;8.10;;;4.68;;
85381;SDS011;75790;40.308;44.272;2024-02-23T11:27:42;6.93;;;3.78;;
85381;SDS011;75790;40.308;44.272;2024-02-23T11:30:09;7.00;;;3.67;;
85381;SDS011;75790;40.308;44.272;2024-02-23T11:32:37;7.20;;;3.97;;
85381;SDS011;75790;40.308;44.272;2024-02-23T11:35:05;7.82;;;4.32;;
85381;SDS011;75790;40.308;44.272;2024-02-23T11:37:54;9.25;;;4.72;;
85381;SDS011;75790;40.308;44.272;2024-02-23T11:40:25;8.40;;;4.30;;
85381;SDS011;75790;40.308;44.272;2024-02-23T11:42:51;8.65;;;4.78;;
85381;SDS011;75790;40.308;44.272;2024-02-23T11:45:17;8.15;;;4.28;;
85381;SDS011;75790;40.308;44.272;2024-02-23T11:47:43;7.75;;;4.05;;
85381;SDS011;75790;40.308;44.272;2024-02-23T11:50:09;8.82;;;4.32;;
85381;SDS011;75790;40.308;44.272;2024-02-23T11:52:36;9.10;;;4.63;;
85381;SDS011;75790;40.308;44.272;2024-02-23T11:55:03;8.85;;;4.28;;
85381;SDS011;75790;40.308;44.272;2024-02-23T11:57:30;8.20;;;4.63;;
85381;SDS011;75790;40.308;44.272;2024-02-23T11:59:57;7.93;;;4.32;;
85381;SDS011;75790;40.308;44.272;2024-02-23T12:02:24;8.30;;;4.60;;
85381;SDS011;75790;40.308;44.272;2024-02-23T12:04:50;8.05;;;4.30;;
85381;SDS011;75790;40.308;44.272;2024-02-23T12:07:16;6.43;;;3.65;;
85381;SDS011;75790;40.308;44.272;2024-02-23T12:09:42;7.05;;;4.35;;
85381;SDS011;75790;40.308;44.272;2024-02-23T12:12:08;10.15;;;4.10;;
85381;SDS011;75790;40.308;44.272;2024-02-23T12:14:37;10.40;;;4.35;;
85381;SDS011;75790;40.308;44.272;2024-02-23T12:17:04;9.60;;;4.32;;
85381;SDS011;75790;40.308;44.272;2024-02-23T12:19:31;7.32;;;3.72;;
85381;SDS011;75790;40.308;44.272;2024-02-23T12:22:01;7.22;;;3.70;;
85381;SDS011;75790;40.308;44.272;2024-02-23T12:24:27;7.57;;;4.43;;
85381;SDS011;75790;40.308;44.272;2024-02-23T12:26:55;7.13;;;3.80;;
85381;SDS011;75790;40.308;44.272;2024-02-23T12:29:21;7.68;;;4.10;;
85381;SDS011;75790;40.308;44.272;2024-02-23T12:31:47;6.47;;;3.90;;
85381;SDS011;75790;40.308;44.272;2024-02-23T12:34:13;7.93;;;4.13;;
85381;SDS011;75790;40.308;44.272;2024-02-23T12:36:39;8.95;;;3.92;;
85381;SDS011;75790;40.308;44.272;2024-02-23T12:39:05;7.70;;;4.40;;
85381;SDS011;75790;40.308;44.272;2024-02-23T12:41:31;7.95;;;4.40;;
85381;SDS011;75790;40.308;44.272;2024-02-23T12:43:57;7.15;;;4.40;;
85381;SDS011;75790;40.308;44.272;2024-02-23T12:46:23;7.88;;;4.55;;
85381;SDS011;75790;40.308;44.272;2024-02-23T12:48:49;7.03;;;4.45;;
85381;SDS011;75790;40.308;44.272;2024-02-23T12:51:15;8.10;;;4.70;;
85381;SDS011;75790;40.308;44.272;2024-02-23T12:53:41;7.50;;;4.50;;
85381;SDS011;75790;40.308;44.272;2024-02-23T12:56:10;9.63;;;5.00;;
85381;SDS011;75790;40.308;44.272;2024-02-23T12:58:39;8.13;;;4.28;;
85381;SDS011;75790;40.308;44.272;2024-02-23T13:01:06;9.85;;;4.55;;
85381;SDS011;75790;40.308;44.272;2024-02-23T13:03:36;8.60;;;4.63;;
85381;SDS011;75790;40.308;44.272;2024-02-23T13:06:03;8.90;;;4.60;;
85381;SDS011;75790;40.308;44.272;2024-02-23T13:08:29;8.88;;;5.22;;
85381;SDS011;75790;40.308;44.272;2024-02-23T13:10:56;9.10;;;4.82;;
85381;SDS011;75790;40.308;44.272;2024-02-23T13:13:22;8.40;;;5.30;;
85381;SDS011;75790;40.308;44.272;2024-02-23T13:15:50;9.45;;;5.13;;
85381;SDS011;75790;40.308;44.272;2024-02-23T13:18:16;11.50;;;5.70;;
85381;SDS011;75790;40.308;44.272;2024-02-23T13:20:44;8.85;;;4.88;;
85381;SDS011;75790;40.308;44.272;2024-02-23T13:23:10;10.50;;;4.97;;
85381;SDS011;75790;40.308;44.272;2024-02-23T13:25:40;11.00;;;5.65;;
85381;SDS011;75790;40.308;44.272;2024-02-23T13:28:06;9.07;;;5.28;;
85381;SDS011;75790;40.308;44.272;2024-02-23T13:30:33;9.15;;;5.28;;
85381;SDS011;75790;40.308;44.272;2024-02-23T13:33:00;8.82;;;4.90;;
85381;SDS011;75790;40.308;44.272;2024-02-23T13:35:27;9.32;;;5.07;;
85381;SDS011;75790;40.308;44.272;2024-02-23T13:37:53;9.75;;;5.43;;
85381;SDS011;75790;40.308;44.272;2024-02-23T13:40:19;9.27;;;5.00;;
85381;SDS011;75790;40.308;44.272;2024-02-23T13:42:45;7.13;;;4.47;;
85381;SDS011;75790;40.308;44.272;2024-02-23T13:45:14;8.80;;;5.25;;
85381;SDS011;75790;40.308;44.272;2024-02-23T13:47:41;7.15;;;4.28;;
85381;SDS011;75790;40.308;44.272;2024-02-23T13:50:09;8.32;;;4.72;;
85381;SDS011;75790;40.308;44.272;2024-02-23T13:52:35;9.32;;;5.25;;
85381;SDS011;75790;40.308;44.272;2024-02-23T13:55:02;10.27;;;5.10;;
85381;SDS011;75790;40.308;44.272;2024-02-23T13:57:28;10.98;;;5.32;;
85381;SDS011;75790;40.308;44.272;2024-02-23T13:59:54;9.38;;;4.70;;
85381;SDS011;75790;40.308;44.272;2024-02-23T14:02:26;9.80;;;5.50;;
85381;SDS011;75790;40.308;44.272;2024-02-23T14:05:00;7.50;;;4.22;;
85381;SDS011;75790;40.308;44.272;2024-02-23T14:07:32;10.70;;;5.90;;
85381;SDS011;75790;40.308;44.272;2024-02-23T14:09:58;8.68;;;5.18;;
85381;SDS011;75790;40.308;44.272;2024-02-23T14:12:24;10.98;;;5.63;;
85381;SDS011;75790;40.308;44.272;2024-02-23T14:14:50;9.95;;;5.10;;
85381;SDS011;75790;40.308;44.272;2024-02-23T14:17:16;8.40;;;4.80;;
85381;SDS011;75790;40.308;44.272;2024-02-23T14:19:42;9.65;;;5.00;;
85381;SDS011;75790;40.308;44.272;2024-02-23T14:22:08;10.45;;;5.05;;
85381;SDS011;75790;40.308;44.272;2024-02-23T14:24:33;9.98;;;4.47;;
85381;SDS011;75790;40.308;44.272;2024-02-23T14:26:59;9.93;;;5.15;;
85381;SDS011;75790;40.308;44.272;2024-02-23T14:29:25;8.73;;;4.60;;
85381;SDS011;75790;40.308;44.272;2024-02-23T14:31:52;8.15;;;4.75;;
85381;SDS011;75790;40.308;44.272;2024-02-23T14:34:18;7.95;;;4.90;;
85381;SDS011;75790;40.308;44.272;2024-02-23T14:36:46;11.48;;;5.38;;
85381;SDS011;75790;40.308;44.272;2024-02-23T14:39:12;10.80;;;5.97;;
85381;SDS011;75790;40.308;44.272;2024-02-23T14:41:38;8.43;;;5.15;;
85381;SDS011;75790;40.308;44.272;2024-02-23T14:44:04;9.45;;;4.95;;
85381;SDS011;75790;40.308;44.272;2024-02-23T14:46:30;9.35;;;4.88;;
85381;SDS011;75790;40.308;44.272;2024-02-23T14:48:56;11.43;;;5.10;;
85381;SDS011;75790;40.308;44.272;2024-02-23T14:51:22;10.85;;;5.68;;
85381;SDS011;75790;40.308;44.272;2024-02-23T14:53:48;10.25;;;5.43;;
85381;SDS011;75790;40.308;44.272;2024-02-23T14:56:13;10.32;;;5.68;;
85381;SDS011;75790;40.308;44.272;2024-02-23T14:58:39;10.38;;;5.28;;
85381;SDS011;75790;40.308;44.272;2024-02-23T15:01:05;9.93;;;5.13;;
85381;SDS011;75790;40.308;44.272;2024-02-23T15:03:31;14.05;;;7.45;;
85381;SDS011;75790;40.308;44.272;2024-02-23T15:05:58;13.75;;;7.55;;
85381;SDS011;75790;40.308;44.272;2024-02-23T15:08:24;20.45;;;10.00;;
85381;SDS011;75790;40.308;44.272;2024-02-23T15:10:50;15.50;;;7.32;;
85381;SDS011;75790;40.308;44.272;2024-02-23T15:13:19;15.90;;;6.90;;
85381;SDS011;75790;40.308;44.272;2024-02-23T15:15:45;18.75;;;8.77;;
85381;SDS011;75790;40.308;44.272;2024-02-23T15:18:11;17.40;;;7.85;;
85381;SDS011;75790;40.308;44.272;2024-02-23T15:20:37;18.73;;;9.18;;